Time;durP1;ratioP1;P1;durP2;ratioP2;P2;SDS_P1;SDS_P2;PMS_P1;PMS_P2;Temp;Humidity;BMP_temperature;BMP_pressure;BME280_temperature;BME280_humidity;BME280_pressure;Samples;Min_cycle;Max_cycle;Signal;HPM_P1;HPM_P2
2023/08/27 00:01:27;;;;;;;7.10;4.90;;;;;;;28.76;76.06;100364.75;108081;1285;21988;-79
2023/08/27 00:03:53;;;;;;;8.10;4.70;;;;;;;28.76;76.21;100364.52;108098;1285;21994;-59
2023/08/27 00:06:18;;;;;;;7.60;4.70;;;;;;;28.76;76.27;100365.08;108088;1287;22009;-80
2023/08/27 00:08:44;;;;;;;6.90;5.00;;;;;;;28.74;76.51;100358.20;108057;1284;21984;-59
2023/08/27 00:11:09;;;;;;;7.80;4.70;;;;;;;28.70;77.05;100356.56;108085;1284;22019;-77
2023/08/27 00:13:35;;;;;;;10.40;5.30;;;;;;;28.65;77.26;100355.92;108093;1284;22020;-59
2023/08/27 00:16:00;;;;;;;10.40;4.90;;;;;;;28.61;77.25;100352.82;108106;1281;21987;-78
2023/08/27 00:18:26;;;;;;;7.50;5.40;;;;;;;28.59;77.12;100353.55;108105;1284;21989;-77
2023/08/27 00:20:51;;;;;;;8.10;5.50;;;;;;;28.58;77.61;100348.64;108084;1287;21989;-59
2023/08/27 00:23:17;;;;;;;7.40;6.00;;;;;;;28.57;77.68;100348.36;108084;1288;21992;-59
2023/08/27 00:25:43;;;;;;;8.70;5.80;;;;;;;28.55;77.54;100346.72;108129;1289;21999;-60
2023/08/27 00:28:11;;;;;;;8.40;5.50;;;;;;;28.53;77.19;100353.44;108167;1284;21987;-76
2023/08/27 00:30:36;;;;;;;8.10;5.30;;;;;;;28.52;77.28;100354.59;108113;1287;22142;-59
2023/08/27 00:33:03;;;;;;;9.90;5.10;;;;;;;28.50;77.54;100349.30;108099;1277;22025;-59
2023/08/27 00:35:31;;;;;;;8.90;4.80;;;;;;;28.50;77.62;100347.67;108083;1283;21999;-77
2023/08/27 00:37:57;;;;;;;7.00;5.60;;;;;;;28.51;77.89;100346.73;108087;1284;22022;-77
2023/08/27 00:40:23;;;;;;;6.20;5.20;;;;;;;28.50;77.61;100347.13;108074;1286;22451;-60
2023/08/27 00:42:48;;;;;;;7.10;5.30;;;;;;;28.49;78.05;100345.98;108106;1287;21997;-76
2023/08/27 00:45:14;;;;;;;7.60;5.80;;;;;;;28.47;78.24;100341.31;108071;1284;21989;-59
2023/08/27 00:47:39;;;;;;;7.80;5.80;;;;;;;28.44;78.27;100341.90;108073;1284;21986;-76
2023/08/27 00:50:07;;;;;;;7.40;6.00;;;;;;;28.43;78.65;100340.04;108081;1277;21986;-58
2023/08/27 00:52:33;;;;;;;9.00;6.00;;;;;;;28.41;78.40;100339.45;107907;1284;21984;-75
2023/08/27 00:54:59;;;;;;;8.40;6.00;;;;;;;28.40;78.49;100337.58;108083;1284;21990;-60
2023/08/27 00:57:25;;;;;;;8.70;6.30;;;;;;;28.38;77.87;100340.27;108104;1289;21987;-75
2023/08/27 00:59:50;;;;;;;10.50;5.80;;;;;;;28.35;78.07;100341.23;107836;1286;21996;-61
2023/08/27 01:02:16;;;;;;;8.50;5.50;;;;;;;28.32;77.76;100345.48;107917;1280;22256;-59
2023/08/27 01:04:41;;;;;;;7.40;5.40;;;;;;;28.30;78.10;100350.89;108104;1288;22084;-73
2023/08/27 01:07:12;;;;;;;9.60;5.80;;;;;;;28.26;77.98;100352.47;108121;1288;21987;-70
2023/08/27 01:09:46;;;;;;;6.90;5.60;;;;;;;28.23;78.22;100350.04;108141;1287;21988;-76
2023/08/27 01:12:17;;;;;;;10.10;5.70;;;;;;;28.19;78.15;100346.06;108139;1284;22026;-59
2023/08/27 01:14:43;;;;;;;10.00;5.20;;;;;;;28.16;78.39;100347.58;108141;1276;21993;-75
2023/08/27 01:17:08;;;;;;;7.70;5.20;;;;;;;28.13;78.40;100350.73;107899;1288;21991;-75
2023/08/27 01:19:34;;;;;;;7.20;5.00;;;;;;;28.12;78.63;100351.73;107869;1288;21989;-58
2023/08/27 01:22:00;;;;;;;8.50;4.70;;;;;;;28.12;79.04;100345.64;107883;1288;22453;-75
2023/08/27 01:24:25;;;;;;;10.30;5.10;;;;;;;28.13;78.99;100340.15;108136;1284;22047;-59
2023/08/27 01:26:54;;;;;;;8.70;5.90;;;;;;;28.15;78.33;100339.96;108131;1287;22029;-59
2023/08/27 01:29:40;;;;;;;7.20;5.20;;;;;;;28.16;78.61;100339.30;108187;1288;22039;-74
2023/08/27 01:32:26;;;;;;;7.70;4.90;;;;;;;28.16;79.07;100337.52;108137;1284;22027;-75
2023/08/27 01:34:51;;;;;;;6.60;4.70;;;;;;;28.13;79.05;100336.83;108122;1288;21986;-74
2023/08/27 01:37:17;;;;;;;7.20;4.40;;;;;;;28.13;78.78;100335.92;107969;1287;21986;-74
2023/08/27 01:39:43;;;;;;;6.00;4.60;;;;;;;28.15;78.54;100331.85;107912;1280;22043;-58
2023/08/27 01:42:09;;;;;;;8.00;5.30;;;;;;;28.16;78.64;100336.65;108107;1285;21986;-59
2023/08/27 01:44:35;;;;;;;6.50;4.80;;;;;;;28.15;78.63;100336.27;108129;1287;21988;-59
2023/08/27 01:47:00;;;;;;;7.70;5.10;;;;;;;28.15;78.70;100334.27;107969;1284;21987;-73
2023/08/27 01:49:26;;;;;;;7.40;5.00;;;;;;;28.16;78.62;100333.38;108104;1284;21989;-61
2023/08/27 01:51:51;;;;;;;6.50;4.80;;;;;;;28.16;78.57;100333.20;108111;1287;21994;-75
2023/08/27 01:54:18;;;;;;;8.30;5.20;;;;;;;28.15;79.89;100331.60;108073;1281;22771;-59
2023/08/27 01:56:44;;;;;;;7.40;5.40;;;;;;;28.12;79.30;100325.36;108016;1277;21992;-74
2023/08/27 01:59:09;;;;;;;7.30;5.50;;;;;;;28.08;79.34;100325.73;108007;1287;21987;-73
2023/08/27 02:01:35;;;;;;;7.00;5.00;;;;;;;28.04;79.48;100324.05;108034;1284;21990;-59
2023/08/27 02:04:00;;;;;;;8.20;4.70;;;;;;;28.02;80.08;100321.37;108025;1285;21992;-59
2023/08/27 02:06:26;;;;;;;8.30;5.10;;;;;;;28.01;80.66;100320.59;108004;1287;21998;-59
2023/08/27 02:08:51;;;;;;;11.00;5.80;;;;;;;27.98;80.93;100320.83;108056;1288;23647;-59
2023/08/27 02:11:17;;;;;;;8.50;5.70;;;;;;;27.95;82.05;100323.77;108014;1280;22002;-59
2023/08/27 02:20:21;;;;;;;7.90;6.00;;;;;;;27.90;82.85;100328.67;107496;1287;544522;-59
2023/08/27 02:22:47;;;;;;;10.80;5.20;;;;;;;27.84;81.96;100332.10;107614;1293;22002;-59
2023/08/27 02:25:12;;;;;;;6.90;5.20;;;;;;;27.83;82.48;100328.24;107548;1294;22004;-59
2023/08/27 02:27:38;;;;;;;6.70;5.70;;;;;;;27.82;82.68;100324.95;107527;1292;22004;-71
2023/08/27 02:30:05;;;;;;;8.40;5.30;;;;;;;27.80;82.33;100324.15;107572;1293;22007;-61
2023/08/27 02:32:30;;;;;;;7.30;6.10;;;;;;;27.79;82.86;100320.11;107471;1290;22037;-72
2023/08/27 02:34:56;;;;;;;8.00;6.10;;;;;;;27.81;83.31;100322.77;107628;1292;148918;-73
2023/08/27 02:37:22;;;;;;;15.90;6.00;;;;;;;27.76;84.28;100322.54;107770;1293;21998;-73
2023/08/27 02:39:47;;;;;;;9.40;5.80;;;;;;;27.71;83.26;100320.09;107754;1293;22463;-73
2023/08/27 02:42:13;;;;;;;7.50;5.80;;;;;;;27.70;83.52;100324.31;107787;1292;22008;-60
2023/08/27 02:44:38;;;;;;;14.20;6.50;;;;;;;27.71;83.21;100324.40;107762;1292;21998;-72
2023/08/27 02:47:04;;;;;;;7.20;5.50;;;;;;;27.71;84.01;100319.52;107752;1282;21995;-72
2023/08/27 02:49:29;;;;;;;9.90;6.10;;;;;;;27.70;85.98;100313.99;107765;1283;22002;-71
2023/08/27 02:51:55;;;;;;;8.50;5.80;;;;;;;27.68;84.68;100314.20;107821;1292;22583;-61
2023/08/27 02:54:20;;;;;;;8.10;6.00;;;;;;;27.67;84.16;100313.73;107779;1293;22036;-71
2023/08/27 02:56:46;;;;;;;7.20;5.60;;;;;;;27.67;84.24;100317.13;107781;1293;22000;-61
2023/08/27 02:59:12;;;;;;;9.40;6.50;;;;;;;27.68;84.33;100318.30;107748;1289;21993;-61
2023/08/27 03:01:37;;;;;;;9.80;6.00;;;;;;;27.70;83.98;100323.59;107757;1293;21984;-62
2023/08/27 03:04:03;;;;;;;11.90;6.20;;;;;;;27.72;83.61;100321.42;107805;1293;21999;-70
2023/08/27 03:06:29;;;;;;;11.10;7.40;;;;;;;27.72;83.70;100315.65;107864;1292;21990;-60
2023/08/27 03:08:55;;;;;;;10.50;6.00;;;;;;;27.69;83.28;100314.24;107793;1287;21998;-61
2023/08/27 03:11:20;;;;;;;12.10;7.20;;;;;;;27.68;83.60;100313.44;107897;1292;22033;-61
2023/08/27 03:13:48;;;;;;;9.80;6.50;;;;;;;27.67;84.05;100315.18;107818;1289;23715;-61
2023/08/27 03:16:13;;;;;;;9.30;5.60;;;;;;;27.65;83.95;100314.80;109859;1283;21921;-69
2023/08/27 03:18:39;;;;;;;6.80;5.70;;;;;;;27.64;83.83;100313.61;109896;1283;21950;-66
2023/08/27 03:21:04;;;;;;;11.50;7.10;;;;;;;27.61;84.58;100315.61;109497;1293;21996;-58
2023/08/27 03:23:34;;;;;;;8.90;6.50;;;;;;;27.58;84.39;100322.96;107784;1293;22052;-59
2023/08/27 03:25:59;;;;;;;9.30;6.30;;;;;;;27.56;84.63;100327.07;107802;1284;22004;-58
2023/08/27 03:28:25;;;;;;;9.00;6.30;;;;;;;27.56;84.43;100331.09;107813;1293;21999;-67
2023/08/27 03:30:51;;;;;;;10.10;6.30;;;;;;;27.54;83.76;100333.20;107797;1287;21998;-68
2023/08/27 03:33:16;;;;;;;6.80;6.10;;;;;;;27.56;83.86;100334.48;107809;1290;21996;-58
2023/08/27 03:35:50;;;;;;;7.80;5.90;;;;;;;27.58;83.86;100336.68;107798;1292;21996;-59
2023/08/27 03:38:16;;;;;;;7.60;5.80;;;;;;;27.60;83.95;100335.38;107815;1283;22024;-60
2023/08/27 03:40:49;;;;;;;11.80;6.30;;;;;;;27.62;84.82;100333.45;107816;1293;22035;-59
2023/08/27 03:43:15;;;;;;;10.30;7.10;;;;;;;27.63;84.64;100339.32;107795;1293;22002;-59
2023/08/27 03:45:40;;;;;;;9.30;5.80;;;;;;;27.64;84.21;100340.50;107784;1292;22004;-67
2023/08/27 03:48:06;;;;;;;11.80;6.20;;;;;;;27.66;84.56;100340.26;107795;1286;22002;-67
2023/08/27 03:50:31;;;;;;;11.70;7.10;;;;;;;27.68;86.34;100337.10;107795;1293;22003;-67
2023/08/27 03:52:57;;;;;;;9.20;5.90;;;;;;;27.66;85.27;100332.37;107802;1286;21999;-59
2023/08/27 03:55:23;;;;;;;9.60;6.30;;;;;;;27.67;85.44;100329.95;107821;1289;21999;-67
2023/08/27 03:57:50;;;;;;;16.80;5.90;;;;;;;27.70;85.46;100325.94;107802;1293;21994;-60
2023/08/27 04:00:16;;;;;;;10.50;6.20;;;;;;;27.72;85.81;100325.88;107801;1290;21990;-60
2023/08/27 04:02:43;;;;;;;7.30;6.10;;;;;;;27.76;86.22;100328.69;107808;1288;24408;-58
2023/08/27 04:05:09;;;;;;;10.10;6.70;;;;;;;27.78;87.36;100320.59;108017;1288;21994;-68
2023/08/27 04:07:35;;;;;;;13.30;6.80;;;;;;;27.80;86.70;100323.09;107824;1291;21993;-68
2023/08/27 04:10:00;;;;;;;7.40;5.90;;;;;;;27.83;86.52;100317.26;107769;1290;22004;-64
2023/08/27 04:12:26;;;;;;;10.80;6.20;;;;;;;27.86;86.81;100317.49;107827;1287;21996;-67
2023/08/27 04:14:51;;;;;;;13.00;6.60;;;;;;;27.95;86.39;100322.17;107811;1282;22016;-67
2023/08/27 04:17:17;;;;;;;7.10;6.10;;;;;;;28.09;86.13;100318.98;107811;1291;22002;-66
2023/08/27 04:19:43;;;;;;;7.60;6.10;;;;;;;28.23;86.44;100316.38;107803;1291;21999;-59
2023/08/27 04:22:08;;;;;;;6.70;5.80;;;;;;;28.34;88.55;100319.89;107827;1288;21983;-66
2023/08/27 04:24:34;;;;;;;10.40;6.50;;;;;;;28.40;88.66;100319.55;107797;1285;21993;-67
2023/08/27 04:26:59;;;;;;;11.00;6.70;;;;;;;28.42;89.12;100316.14;107833;1291;21993;-60
2023/08/27 04:29:26;;;;;;;14.00;6.90;;;;;;;28.44;90.21;100315.02;107810;1291;21995;-59
2023/08/27 04:31:53;;;;;;;10.10;6.30;;;;;;;28.49;90.00;100314.02;107870;1291;22460;-67
2023/08/27 04:34:18;;;;;;;8.60;6.70;;;;;;;28.53;91.95;100307.54;107823;1291;21995;-59
2023/08/27 04:36:44;;;;;;;11.10;6.40;;;;;;;28.53;91.74;100302.67;107797;1287;22001;-67
2023/08/27 04:39:13;;;;;;;10.70;6.30;;;;;;;28.56;91.68;100301.36;107838;1285;21987;-68
2023/08/27 04:41:40;;;;;;;9.70;6.80;;;;;;;28.61;90.68;100304.52;107812;1287;21986;-71
2023/08/27 04:44:05;;;;;;;10.40;6.50;;;;;;;28.70;91.56;100307.27;107940;1289;22034;-60
2023/08/27 04:46:31;;;;;;;10.10;6.80;;;;;;;28.76;92.19;100306.23;107778;1283;22001;-60
2023/08/27 04:48:57;;;;;;;15.10;6.90;;;;;;;28.79;92.88;100307.80;107880;1291;21996;-59
2023/08/27 04:51:25;;;;;;;7.90;6.00;;;;;;;28.84;91.09;100309.36;107842;1283;22005;-70
2023/08/27 04:53:51;;;;;;;8.10;6.30;;;;;;;28.91;92.59;100309.94;107895;1289;21995;-70
2023/08/27 04:56:16;;;;;;;9.20;6.30;;;;;;;28.98;91.91;100313.11;107836;1283;21998;-59
2023/08/27 04:58:42;;;;;;;8.30;6.10;;;;;;;29.05;91.85;100314.60;107873;1291;22010;-71
2023/08/27 05:01:08;;;;;;;12.40;6.30;;;;;;;29.13;92.30;100315.25;107918;1286;22097;-71
2023/08/27 05:03:34;;;;;;;10.00;6.20;;;;;;;29.20;94.16;100315.30;107789;1291;22011;-72
2023/08/27 05:06:00;;;;;;;9.00;5.40;;;;;;;29.27;94.65;100311.02;107779;1290;22017;-71
2023/08/27 05:08:26;;;;;;;10.90;5.60;;;;;;;29.33;92.63;100308.15;107804;1291;21993;-71
2023/08/27 05:10:52;;;;;;;6.70;5.00;;;;;;;29.39;92.95;100308.81;107803;1291;22007;-71
2023/08/27 05:13:19;;;;;;;8.20;5.20;;;;;;;29.55;92.78;100309.92;107868;1291;21998;-59
2023/08/27 05:15:45;;;;;;;7.00;4.80;;;;;;;29.62;93.11;100308.75;107851;1291;22017;-70
2023/08/27 05:18:10;;;;;;;6.80;5.10;;;;;;;29.70;92.47;100306.94;107822;1291;22008;-63
2023/08/27 05:20:37;;;;;;;8.40;4.70;;;;;;;29.77;92.90;100303.48;107782;1290;22000;-60
2023/08/27 05:23:03;;;;;;;6.60;4.60;;;;;;;29.85;92.85;100302.56;107793;1289;21998;-60
2023/08/27 05:25:28;;;;;;;8.00;5.10;;;;;;;29.94;92.11;100302.79;107832;1291;21996;-59
2023/08/27 05:27:54;;;;;;;7.10;4.70;;;;;;;30.04;91.95;100302.25;107868;1288;21998;-69
2023/08/27 05:30:20;;;;;;;9.20;4.50;;;;;;;30.12;91.95;100300.58;107796;1283;22002;-60
2023/08/27 05:32:46;;;;;;;8.40;4.90;;;;;;;30.20;92.07;100298.20;107785;1290;22022;-60
2023/08/27 05:35:11;;;;;;;6.50;4.50;;;;;;;30.29;91.24;100303.85;107832;1290;21992;-60
2023/08/27 05:37:37;;;;;;;5.80;4.10;;;;;;;30.36;90.03;100304.41;107759;1290;22007;-59
2023/08/27 05:40:05;;;;;;;6.80;4.20;;;;;;;30.46;89.58;100300.77;107765;1290;21995;-60
2023/08/27 05:42:32;;;;;;;5.90;4.20;;;;;;;30.62;88.59;100297.26;107864;1286;23064;-59
2023/08/27 05:44:58;;;;;;;6.90;4.50;;;;;;;30.73;87.96;100294.50;107787;1290;22000;-59
2023/08/27 05:47:24;;;;;;;8.00;4.30;;;;;;;30.84;87.17;100293.77;107821;1290;21993;-75
2023/08/27 05:49:49;;;;;;;6.20;4.20;;;;;;;30.97;86.95;100298.29;107756;1289;21964;-75
2023/08/27 05:52:15;;;;;;;5.30;3.90;;;;;;;31.06;86.12;100300.08;107773;1290;22217;-59
2023/08/27 05:54:41;;;;;;;8.00;4.30;;;;;;;31.17;85.68;100292.86;107759;1282;22000;-59
2023/08/27 05:57:06;;;;;;;7.00;4.00;;;;;;;31.28;85.32;100294.13;107760;1289;21995;-60
2023/08/27 05:59:32;;;;;;;5.20;3.80;;;;;;;31.40;83.82;100298.97;107778;1286;21995;-76
2023/08/27 06:01:58;;;;;;;7.10;4.00;;;;;;;31.48;80.95;100300.50;107816;1290;21987;-59
2023/08/27 06:04:24;;;;;;;5.10;3.90;;;;;;;31.58;80.19;100303.98;107784;1290;22002;-60
2023/08/27 06:06:50;;;;;;;7.20;4.20;;;;;;;31.67;78.02;100303.96;107831;1290;22161;-60
2023/08/27 06:09:16;;;;;;;6.30;4.10;;;;;;;31.77;77.73;100302.62;107764;1290;21997;-75
2023/08/27 06:11:42;;;;;;;7.70;4.00;;;;;;;31.89;77.71;100302.84;107824;1286;21993;-76
2023/08/27 06:14:07;;;;;;;6.20;4.20;;;;;;;32.04;75.85;100300.58;107773;1290;21993;-77
2023/08/27 06:16:33;;;;;;;6.40;3.70;;;;;;;32.16;73.37;100297.83;107756;1290;22033;-59
2023/08/27 06:18:59;;;;;;;7.60;3.90;;;;;;;32.27;72.01;100296.34;107846;1290;21998;-76
2023/08/27 06:21:25;;;;;;;8.60;3.90;;;;;;;32.38;71.31;100295.02;107764;1290;22033;-60
2023/08/27 06:23:50;;;;;;;6.80;3.90;;;;;;;32.52;71.42;100298.99;107785;1283;21995;-74
2023/08/27 06:26:16;;;;;;;4.60;3.40;;;;;;;32.66;69.97;100301.98;107752;1290;23616;-75
2023/08/27 06:28:42;;;;;;;9.00;5.30;;;;;;;32.79;67.47;100306.67;107859;1290;21993;-75
2023/08/27 06:31:07;;;;;;;7.40;4.40;;;;;;;32.93;67.43;100307.41;107778;1290;22033;-60
2023/08/27 06:33:33;;;;;;;7.90;3.90;;;;;;;33.04;65.46;100309.83;107807;1282;21999;-75
2023/08/27 06:35:59;;;;;;;6.60;4.10;;;;;;;33.16;66.14;100309.92;107785;1290;22005;-59
2023/08/27 06:38:24;;;;;;;5.40;3.70;;;;;;;33.30;65.34;100314.81;107788;1290;21998;-75
2023/08/27 06:40:50;;;;;;;7.20;4.00;;;;;;;33.42;63.64;100315.82;107790;1286;21995;-76
2023/08/27 06:43:15;;;;;;;6.80;4.20;;;;;;;33.60;64.39;100317.54;107772;1287;22001;-60
2023/08/27 06:45:41;;;;;;;7.60;4.10;;;;;;;33.70;62.63;100321.94;107796;1283;22007;-75
2023/08/27 06:48:08;;;;;;;5.00;4.20;;;;;;;33.76;61.60;100322.60;107799;1290;21980;-61
2023/08/27 06:50:34;;;;;;;7.10;4.60;;;;;;;33.92;62.18;100315.40;107775;1290;21995;-59
2023/08/27 06:53:25;;;;;;;6.20;4.40;;;;;;;34.03;61.19;100317.52;107775;1290;23054;-67
2023/08/27 06:55:50;;;;;;;8.00;4.40;;;;;;;34.04;62.47;100315.03;107794;1284;22006;-60
2023/08/27 06:58:17;;;;;;;6.30;4.00;;;;;;;34.15;62.25;100312.73;107751;1287;22052;-60
2023/08/27 07:00:44;;;;;;;6.60;4.40;;;;;;;34.31;61.43;100311.98;107861;1286;22002;-76
2023/08/27 07:03:10;;;;;;;6.50;4.20;;;;;;;34.44;60.03;100307.43;107771;1290;22000;-75
2023/08/27 07:05:35;;;;;;;7.60;4.30;;;;;;;34.56;59.98;100309.10;107855;1286;22004;-60
2023/08/27 07:08:01;;;;;;;7.00;4.40;;;;;;;34.70;59.87;100312.63;107829;1286;22004;-76
2023/08/27 07:10:27;;;;;;;7.70;4.20;;;;;;;34.80;58.41;100306.76;107859;1290;21992;-61
2023/08/27 07:12:53;;;;;;;7.80;4.20;;;;;;;34.86;58.60;100298.35;107812;1290;22086;-60
2023/08/27 07:15:19;;;;;;;6.40;4.60;;;;;;;34.95;57.81;100294.11;107790;1283;22003;-75
2023/08/27 07:17:45;;;;;;;7.10;4.30;;;;;;;35.06;57.43;100289.84;107807;1290;22744;-60
2023/08/27 07:20:11;;;;;;;5.60;4.00;;;;;;;35.18;56.54;100285.66;107803;1281;21994;-59
2023/08/27 07:22:37;;;;;;;5.70;4.20;;;;;;;35.26;54.73;100283.29;107778;1290;21999;-76
2023/08/27 07:25:05;;;;;;;9.60;4.20;;;;;;;35.30;54.02;100279.70;107955;1290;22001;-77
2023/08/27 07:27:32;;;;;;;6.60;4.10;;;;;;;35.32;52.52;100268.81;107805;1281;22095;-74
2023/08/27 07:29:57;;;;;;;4.60;3.50;;;;;;;35.44;53.11;100265.66;107825;1290;22001;-75
2023/08/27 07:32:23;;;;;;;6.90;3.90;;;;;;;35.62;54.19;100264.45;107903;1290;22003;-59
2023/08/27 07:34:49;;;;;;;8.60;3.90;;;;;;;35.69;52.31;100266.51;107801;1284;22000;-75
2023/08/27 07:37:14;;;;;;;8.50;4.20;;;;;;;35.70;50.16;100268.45;107821;1290;22002;-60
2023/08/27 07:39:40;;;;;;;7.60;3.80;;;;;;;35.83;51.89;100269.65;107767;1290;22223;-60
2023/08/27 07:42:05;;;;;;;5.60;3.70;;;;;;;36.00;50.58;100271.52;107914;1290;22072;-60
2023/08/27 07:44:31;;;;;;;5.70;3.70;;;;;;;36.05;48.77;100267.30;107775;1290;22005;-61
2023/08/27 07:46:56;;;;;;;6.40;4.40;;;;;;;36.10;48.78;100263.80;107838;1286;22004;-77
2023/08/27 07:49:22;;;;;;;4.00;3.20;;;;;;;36.24;49.42;100259.87;107791;1290;22005;-60
2023/08/27 07:51:48;;;;;;;8.50;3.80;;;;;;;36.36;49.07;100258.05;107891;1282;21997;-76
2023/08/27 07:54:13;;;;;;;7.40;4.00;;;;;;;36.50;49.55;100253.02;107841;1288;21997;-75
2023/08/27 07:56:39;;;;;;;7.80;4.00;;;;;;;36.62;48.91;100249.54;107807;1279;24325;-61
2023/08/27 07:59:05;;;;;;;4.50;3.50;;;;;;;36.67;47.37;100245.27;107799;1287;21990;-76
2023/08/27 08:01:31;;;;;;;5.50;3.90;;;;;;;36.75;47.46;100240.84;107796;1290;23142;-75
2023/08/27 08:03:56;;;;;;;7.10;3.80;;;;;;;36.85;47.31;100238.46;107788;1290;21995;-61
2023/08/27 08:06:22;;;;;;;7.60;3.80;;;;;;;36.92;47.01;100240.35;107847;1284;21993;-60
2023/08/27 08:08:48;;;;;;;6.40;3.50;;;;;;;36.99;45.13;100242.55;107797;1289;21994;-60
2023/08/27 08:11:13;;;;;;;8.40;3.60;;;;;;;37.13;46.24;100242.92;107771;1286;21992;-60
2023/08/27 08:13:41;;;;;;;5.90;3.70;;;;;;;37.25;44.46;100244.22;107791;1284;22049;-60
2023/08/27 08:16:07;;;;;;;8.50;4.00;;;;;;;37.41;43.31;100244.39;107786;1281;22003;-75
2023/08/27 08:18:33;;;;;;;14.70;4.20;;;;;;;37.56;42.96;100244.11;107860;1289;21997;-76
2023/08/27 08:21:00;;;;;;;5.40;3.40;;;;;;;37.67;42.70;100244.98;107872;1288;22745;-60
2023/08/27 08:23:25;;;;;;;4.70;3.30;;;;;;;37.77;42.46;100242.76;107775;1290;22751;-60
2023/08/27 08:25:51;;;;;;;7.00;4.00;;;;;;;37.90;42.04;100246.39;107841;1284;21992;-61
2023/08/27 08:28:17;;;;;;;6.60;3.80;;;;;;;38.04;41.84;100246.78;107978;1289;21995;-60
2023/08/27 08:30:48;;;;;;;8.00;3.50;;;;;;;38.29;42.78;100250.19;107811;1290;21997;-61
2023/08/27 08:33:17;;;;;;;6.10;3.60;;;;;;;38.45;40.40;100252.93;107791;1281;22179;-60
2023/08/27 08:35:43;;;;;;;6.30;3.90;;;;;;;38.62;40.41;100255.49;107740;1287;22461;-62
2023/08/27 08:38:09;;;;;;;5.50;3.90;;;;;;;38.75;41.19;100251.38;107744;1290;21992;-60
2023/08/27 08:40:45;;;;;;;6.40;3.80;;;;;;;38.91;40.59;100245.88;107720;1290;22004;-61
2023/08/27 08:43:26;;;;;;;4.60;3.60;;;;;;;39.07;38.52;100240.70;107743;1290;21992;-60
2023/08/27 08:45:59;;;;;;;5.40;3.30;;;;;;;39.19;38.73;100239.16;107836;1290;22965;-76
2023/08/27 08:48:25;;;;;;;9.10;4.00;;;;;;;39.27;37.60;100237.41;107744;1290;23033;-76
2023/08/27 08:50:53;;;;;;;7.50;3.70;;;;;;;39.36;38.50;100232.67;107751;1290;22840;-75
2023/08/27 08:53:18;;;;;;;5.10;3.70;;;;;;;39.41;38.34;100228.52;107815;1290;22022;-76
2023/08/27 08:55:46;;;;;;;6.60;3.90;;;;;;;39.55;38.80;100228.41;107737;1290;22033;-73
2023/08/27 08:58:12;;;;;;;6.40;3.80;;;;;;;39.77;38.45;100225.13;107755;1290;22079;-62
2023/08/27 09:00:38;;;;;;;9.20;3.70;;;;;;;39.97;37.94;100223.21;107797;1290;21993;-71
2023/08/27 09:03:04;;;;;;;6.00;3.90;;;;;;;39.98;36.64;100218.23;107860;1290;23631;-61
2023/08/27 09:05:32;;;;;;;6.10;3.50;;;;;;;40.01;37.03;100216.19;107769;1290;21995;-73
2023/08/27 09:07:58;;;;;;;7.50;3.70;;;;;;;40.09;37.35;100215.99;107887;1290;21988;-61
2023/08/27 09:10:24;;;;;;;6.40;3.70;;;;;;;40.23;37.77;100215.91;107829;1290;21995;-62
2023/08/27 09:12:50;;;;;;;4.70;3.20;;;;;;;40.34;37.23;100215.66;107802;1290;21994;-73
2023/08/27 09:15:15;;;;;;;8.60;3.80;;;;;;;40.45;36.82;100217.38;107828;1291;21996;-61
2023/08/27 09:17:41;;;;;;;13.30;3.80;;;;;;;40.53;36.65;100218.81;107749;1286;22000;-73
2023/08/27 09:20:07;;;;;;;7.40;3.70;;;;;;;40.53;35.18;100215.34;107795;1290;23776;-67
2023/08/27 09:22:35;;;;;;;9.90;4.00;;;;;;;40.62;35.14;100216.01;107736;1290;22044;-61
2023/08/27 09:25:04;;;;;;;6.10;3.60;;;;;;;40.79;34.22;100211.46;107784;1287;21972;-61
2023/08/27 09:27:31;;;;;;;7.50;3.70;;;;;;;40.79;33.82;100205.52;107868;1290;21961;-73
2023/08/27 09:30:00;;;;;;;4.40;3.40;;;;;;;40.86;34.75;100202.66;107884;1290;22012;-61
2023/08/27 09:32:26;;;;;;;6.10;3.60;;;;;;;40.93;34.78;100197.55;107827;1279;22103;-75
2023/08/27 09:35:04;;;;;;;5.50;3.60;;;;;;;40.97;33.47;100194.08;107793;1291;23780;-61
2023/08/27 09:37:38;;;;;;;8.10;3.60;;;;;;;40.94;32.85;100197.08;107692;1291;22107;-73
2023/08/27 09:40:07;;;;;;;8.60;3.80;;;;;;;41.07;33.85;100200.50;107691;1287;23642;-77
2023/08/27 09:42:33;;;;;;;8.40;4.00;;;;;;;41.19;32.47;100197.70;107766;1291;21995;-61
2023/08/27 09:44:59;;;;;;;10.90;4.70;;;;;;;41.28;32.52;100195.06;107635;1286;21992;-73
2023/08/27 09:47:30;;;;;;;8.20;4.10;;;;;;;41.37;32.59;100196.34;107772;1291;22053;-60
2023/08/27 09:49:56;;;;;;;12.80;4.20;;;;;;;41.33;31.52;100193.19;109771;1291;21988;-75
2023/08/27 09:52:26;;;;;;;5.70;4.10;;;;;;;41.40;31.52;100190.61;107693;1291;22468;-60
2023/08/27 09:54:52;;;;;;;;;;;;;;;41.35;31.72;100194.10;107638;1291;22856;-76
2023/08/27 09:57:18;;;;;;;8.40;4.40;;;;;;;41.28;31.84;100191.80;107668;1290;23061;-75
2023/08/27 09:59:44;;;;;;;5.10;3.40;;;;;;;41.31;31.39;100186.66;107629;1291;21995;-60
2023/08/27 10:02:14;;;;;;;7.50;3.80;;;;;;;41.29;31.24;100187.16;107604;1281;22447;-75
2023/08/27 10:04:53;;;;;;;5.20;3.00;;;;;;;41.34;31.90;100186.90;107752;1280;22008;-74
2023/08/27 10:07:19;;;;;;;6.50;3.30;;;;;;;41.47;31.48;100186.00;107866;1291;22014;-62
2023/08/27 10:09:52;;;;;;;5.40;3.60;;;;;;;41.57;30.48;100178.95;107850;1291;22001;-60
2023/08/27 10:12:19;;;;;;;14.30;4.20;;;;;;;41.66;30.44;100176.68;107726;1291;22465;-73
2023/08/27 10:14:45;;;;;;;5.40;3.60;;;;;;;41.67;29.67;100174.96;107849;1291;23785;-68
2023/08/27 10:17:12;;;;;;;7.60;4.20;;;;;;;41.62;29.31;100172.10;107635;1291;21999;-60
2023/08/27 10:19:37;;;;;;;5.20;3.50;;;;;;;41.70;30.20;100173.29;107685;1290;21995;-61
2023/08/27 10:22:03;;;;;;;4.90;3.30;;;;;;;41.79;29.31;100176.52;107806;1284;21999;-61
2023/08/27 10:24:30;;;;;;;6.40;4.20;;;;;;;41.84;29.49;100169.70;107665;1286;22004;-60
2023/08/27 10:26:59;;;;;;;5.30;3.10;;;;;;;41.87;29.82;100170.77;107700;1290;21994;-60
2023/08/27 10:29:26;;;;;;;5.40;3.50;;;;;;;42.04;30.47;100163.95;107968;1290;23618;-61
2023/08/27 10:31:52;;;;;;;6.10;3.60;;;;;;;42.25;30.61;100157.27;107678;1290;22033;-61
2023/08/27 10:34:18;;;;;;;5.00;3.50;;;;;;;42.32;30.56;100154.20;107710;1284;22000;-61
2023/08/27 10:36:43;;;;;;;8.30;3.40;;;;;;;42.37;30.60;100150.02;107715;1290;21996;-61
2023/08/27 10:39:09;;;;;;;9.70;4.40;;;;;;;42.48;30.39;100146.95;107785;1290;21995;-76
2023/08/27 10:41:35;;;;;;;7.50;4.00;;;;;;;42.49;29.39;100152.06;107759;1290;23672;-61
2023/08/27 10:44:01;;;;;;;6.40;3.40;;;;;;;42.54;29.68;100151.70;107842;1287;22005;-61
2023/08/27 10:46:27;;;;;;;5.00;3.80;;;;;;;42.63;29.84;100153.91;107814;1290;22002;-73
2023/08/27 10:48:53;;;;;;;6.70;3.60;;;;;;;42.71;29.34;100152.49;107771;1289;23104;-75
2023/08/27 10:51:21;;;;;;;6.20;3.60;;;;;;;42.74;29.41;100149.88;107763;1287;22182;-75
2023/08/27 10:53:49;;;;;;;5.00;3.70;;;;;;;42.74;28.95;100148.18;107930;1290;24380;-61
2023/08/27 10:56:37;;;;;;;5.30;3.50;;;;;;;42.80;29.54;100141.36;107709;1289;22933;-74
2023/08/27 10:59:10;;;;;;;6.80;3.50;;;;;;;42.90;29.19;100141.72;107774;1289;22044;-74
2023/08/27 11:01:58;;;;;;;6.10;3.70;;;;;;;42.97;28.20;100139.20;107801;1284;21994;-75
2023/08/27 11:04:38;;;;;;;11.10;3.90;;;;;;;42.96;27.98;100138.14;107809;1286;23020;-61
2023/08/27 11:07:10;;;;;;;6.70;3.50;;;;;;;43.06;29.00;100136.84;107877;1287;21996;-61
2023/08/27 11:09:45;;;;;;;6.50;3.60;;;;;;;43.08;29.02;100134.55;107895;1290;22002;-74
2023/08/27 11:12:19;;;;;;;5.00;3.60;;;;;;;43.07;29.02;100131.41;107759;1289;22747;-74
2023/08/27 11:14:45;;;;;;;7.40;3.30;;;;;;;43.10;29.01;100128.33;107770;1290;23625;-60
2023/08/27 11:17:11;;;;;;;6.00;3.60;;;;;;;43.16;28.68;100124.27;107755;1288;22164;-60
2023/08/27 11:19:37;;;;;;;7.90;3.80;;;;;;;43.29;28.99;100124.17;107754;1286;22032;-74
2023/08/27 11:22:10;;;;;;;6.30;3.60;;;;;;;43.35;28.96;100119.80;107754;1284;22001;-74